createdAt,value
2023-02-07T00:01:35.805Z,64.00
2023-02-07T00:04:03.706Z,61.20
2023-02-07T00:06:36.915Z,65.80
2023-02-07T00:09:12.400Z,66.10
2023-02-07T00:11:40.997Z,60.30
2023-02-07T00:14:11.705Z,62.00
2023-02-07T00:16:41.855Z,62.60
2023-02-07T00:19:09.927Z,61.50
2023-02-07T00:21:37.700Z,59.00
2023-02-07T00:24:05.766Z,60.10
2023-02-07T00:26:33.641Z,60.20
2023-02-07T00:29:01.521Z,55.30
2023-02-07T00:31:33.548Z,53.80
2023-02-07T00:34:05.545Z,54.80
2023-02-07T00:36:35.480Z,53.50
2023-02-07T00:39:15.771Z,55.00
2023-02-07T00:41:45.654Z,52.80
2023-02-07T00:44:13.578Z,53.40
2023-02-07T00:46:41.270Z,47.60
2023-02-07T00:49:10.502Z,52.50
2023-02-07T00:51:38.655Z,50.40
2023-02-07T00:54:07.064Z,47.30
2023-02-07T00:56:35.307Z,46.70
2023-02-07T00:59:03.123Z,40.30
2023-02-07T01:01:31.271Z,46.10
2023-02-07T01:03:59.397Z,46.20
2023-02-07T01:06:28.137Z,40.60
2023-02-07T01:08:59.295Z,38.80
2023-02-07T01:11:28.889Z,39.70
2023-02-07T01:14:00.842Z,38.00
2023-02-07T01:16:35.935Z,39.30
2023-02-07T01:19:08.600Z,36.70
2023-02-07T01:21:36.949Z,38.10
2023-02-07T01:24:05.704Z,36.10
2023-02-07T01:26:35.732Z,36.00
2023-02-07T01:29:05.026Z,36.10
2023-02-07T01:31:33.636Z,37.90
2023-02-07T01:34:05.216Z,37.50
2023-02-07T01:36:33.507Z,39.00
2023-02-07T01:39:01.279Z,42.80
2023-02-07T01:41:28.980Z,43.10
2023-02-07T01:44:06.364Z,41.30
2023-02-07T01:46:36.625Z,43.80
2023-02-07T01:49:13.193Z,42.60
2023-02-07T01:51:51.854Z,41.60
2023-02-07T01:54:21.861Z,39.30
2023-02-07T01:56:57.274Z,39.40
2023-02-07T01:59:26.617Z,37.70
2023-02-07T02:01:56.083Z,41.20
2023-02-07T02:04:24.335Z,40.40
2023-02-07T02:06:53.143Z,37.20
2023-02-07T02:09:20.824Z,37.60
2023-02-07T02:12:22.875Z,37.00
2023-02-07T02:15:16.962Z,37.90
2023-02-07T02:18:26.501Z,39.30
2023-02-07T02:21:34.725Z,42.50
2023-02-07T02:25:04.504Z,43.60
2023-02-07T02:28:06.259Z,41.90
2023-02-07T02:31:25.545Z,44.00
2023-02-07T02:34:32.386Z,39.80
2023-02-07T02:37:18.572Z,42.50
2023-02-07T02:40:01.204Z,40.70
2023-02-07T02:42:42.517Z,42.20
2023-02-07T02:45:25.298Z,43.60
2023-02-07T02:47:54.281Z,41.40
2023-02-07T02:50:26.907Z,41.70
2023-02-07T02:52:55.594Z,44.00
2023-02-07T02:55:55.047Z,44.10
2023-02-07T02:59:24.273Z,44.30
2023-02-07T03:02:02.640Z,39.00
2023-02-07T03:05:14.279Z,42.20
2023-02-07T03:08:09.774Z,39.90
2023-02-07T03:11:06.888Z,39.10
2023-02-07T03:14:19.292Z,41.00
2023-02-07T03:16:56.290Z,41.00
2023-02-07T03:19:40.573Z,41.30
2023-02-07T03:22:13.792Z,38.70
2023-02-07T03:24:53.767Z,39.20
2023-02-07T03:27:24.731Z,39.20
2023-02-07T03:29:57.878Z,34.70
2023-02-07T03:32:37.001Z,35.50
2023-02-07T03:35:29.839Z,38.90
2023-02-07T03:38:00.993Z,37.70
2023-02-07T03:40:40.469Z,36.10
2023-02-07T03:43:14.271Z,36.50
2023-02-07T03:45:42.660Z,36.90
2023-02-07T03:48:11.267Z,34.80
2023-02-07T03:50:39.171Z,36.20
2023-02-07T03:53:09.238Z,36.30
2023-02-07T03:55:37.290Z,34.90
2023-02-07T03:58:07.448Z,34.60
2023-02-07T04:00:36.472Z,35.70
2023-02-07T04:03:05.347Z,35.30
2023-02-07T04:05:33.143Z,34.90
2023-02-07T04:08:01.044Z,34.60
2023-02-07T04:10:29.336Z,37.30
2023-02-07T04:12:57.069Z,35.90
2023-02-07T04:15:25.079Z,34.00
2023-02-07T04:17:52.874Z,35.10
2023-02-07T04:20:20.691Z,36.40
2023-02-07T04:22:48.415Z,36.40
2023-02-07T04:25:16.257Z,34.00
2023-02-07T04:27:44.029Z,32.20
2023-02-07T04:30:12.560Z,38.20
2023-02-07T04:32:40.476Z,40.10
2023-02-07T04:35:08.883Z,38.30
2023-02-07T04:37:36.613Z,39.10
2023-02-07T04:40:04.923Z,39.80
2023-02-07T04:42:32.678Z,40.40
2023-02-07T04:45:00.357Z,37.00
2023-02-07T04:47:27.963Z,37.20
2023-02-07T04:49:55.670Z,35.80
2023-02-07T04:52:23.305Z,36.30
2023-02-07T04:54:51.146Z,33.10
2023-02-07T04:57:18.864Z,32.90
2023-02-07T04:59:46.562Z,35.50
2023-02-07T05:02:14.313Z,32.60
2023-02-07T05:04:42.010Z,35.60
2023-02-07T05:07:09.748Z,35.60
2023-02-07T05:09:37.520Z,39.20
2023-02-07T05:12:05.587Z,39.40
2023-02-07T05:14:33.305Z,39.00
2023-02-07T05:17:01.354Z,42.10
2023-02-07T05:19:30.096Z,42.70
2023-02-07T05:21:57.731Z,41.70
2023-02-07T05:24:25.418Z,45.20
2023-02-07T05:26:53.049Z,48.10
2023-02-07T05:29:20.754Z,47.60
2023-02-07T05:32:07.416Z,52.20
2023-02-07T05:34:35.402Z,55.30
2023-02-07T05:37:03.145Z,64.30
2023-02-07T05:39:30.926Z,66.90
2023-02-07T05:41:58.616Z,65.30
2023-02-07T05:44:26.347Z,66.60
2023-02-07T05:46:54.097Z,73.10
2023-02-07T05:49:21.828Z,69.50
2023-02-07T05:51:49.523Z,72.20
2023-02-07T05:54:19.662Z,60.90
2023-02-07T05:56:47.411Z,62.60
2023-02-07T05:59:15.406Z,66.30
2023-02-07T06:01:43.287Z,63.30
2023-02-07T06:04:10.980Z,57.00
2023-02-07T06:06:38.724Z,63.50
2023-02-07T06:09:06.580Z,71.00
2023-02-07T06:11:34.417Z,75.90
2023-02-07T06:14:02.113Z,80.50
2023-02-07T06:16:29.884Z,86.50
2023-02-07T06:18:57.614Z,88.50
2023-02-07T06:21:31.952Z,92.70
2023-02-07T06:24:09.131Z,98.70
2023-02-07T06:26:37.251Z,99.60
2023-02-07T06:29:04.924Z,102.20
2023-02-07T06:31:32.804Z,98.80
2023-02-07T06:34:00.732Z,102.00
2023-02-07T06:36:28.761Z,96.90
2023-02-07T06:38:57.452Z,101.30
2023-02-07T06:41:25.554Z,107.10
2023-02-07T06:43:53.295Z,98.30
2023-02-07T06:46:21.255Z,93.30
2023-02-07T06:48:49.202Z,98.40
2023-02-07T06:51:17.182Z,98.90
2023-02-07T06:53:44.990Z,96.10
2023-02-07T06:56:13.786Z,95.60
2023-02-07T06:58:41.520Z,108.10
2023-02-07T07:01:09.277Z,109.40
2023-02-07T07:03:37.321Z,111.20
2023-02-07T07:06:08.221Z,110.70
2023-02-07T07:08:36.175Z,111.10
2023-02-07T07:11:04.071Z,110.40
2023-02-07T07:13:31.902Z,108.60
2023-02-07T07:15:59.669Z,107.90
2023-02-07T07:18:27.474Z,101.70
2023-02-07T07:20:57.256Z,103.90
2023-02-07T07:23:25.016Z,98.10
2023-02-07T07:25:52.883Z,84.00
2023-02-07T07:28:20.856Z,75.50
2023-02-07T07:30:48.630Z,82.80
2023-02-07T07:33:16.329Z,73.70
2023-02-07T07:35:44.102Z,60.10
2023-02-07T07:38:12.844Z,77.20
2023-02-07T07:40:40.962Z,81.10
2023-02-07T07:43:09.004Z,83.90
2023-02-07T07:45:36.805Z,80.70
2023-02-07T07:48:04.879Z,83.20
2023-02-07T07:50:32.643Z,106.50
2023-02-07T07:53:03.157Z,114.70
2023-02-07T07:55:30.890Z,108.90
2023-02-07T07:57:58.709Z,112.30
2023-02-07T08:00:26.619Z,111.00
2023-02-07T08:02:54.356Z,111.10
2023-02-07T08:05:22.156Z,112.90
2023-02-07T08:07:51.050Z,112.60
2023-02-07T08:10:18.876Z,99.00
2023-02-07T08:12:46.818Z,85.50
2023-02-07T08:15:14.567Z,83.70
2023-02-07T08:17:42.490Z,80.50
2023-02-07T08:20:12.455Z,84.10
2023-02-07T08:22:40.734Z,79.30
2023-02-07T08:25:08.821Z,79.80
2023-02-07T08:27:37.712Z,69.70
2023-02-07T08:30:09.763Z,71.00
2023-02-07T08:32:37.552Z,77.20
2023-02-07T08:35:06.846Z,72.00
2023-02-07T08:37:34.652Z,76.40
2023-02-07T08:40:05.156Z,90.90
2023-02-07T08:42:33.408Z,98.30
2023-02-07T08:45:01.287Z,102.50
2023-02-07T08:47:28.957Z,94.30
2023-02-07T08:49:56.700Z,98.30
2023-02-07T08:52:24.404Z,115.20
2023-02-07T08:54:52.102Z,129.30
2023-02-07T08:57:23.308Z,121.20
2023-02-07T08:59:52.511Z,103.50
2023-02-07T09:02:20.417Z,106.10
2023-02-07T09:04:48.579Z,115.80
2023-02-07T09:07:16.319Z,113.50
2023-02-07T09:09:44.164Z,119.90
2023-02-07T09:12:13.125Z,121.50
2023-02-07T09:14:41.380Z,119.90
2023-02-07T09:17:09.570Z,113.40
2023-02-07T09:19:37.432Z,114.90
2023-02-07T09:22:05.585Z,99.10
2023-02-07T09:24:33.636Z,104.40
2023-02-07T09:27:01.934Z,104.40
2023-02-07T09:29:29.766Z,103.60
2023-02-07T09:31:57.779Z,98.30
2023-02-07T09:34:25.620Z,101.40
2023-02-07T09:36:54.184Z,117.60
2023-02-07T09:39:21.880Z,112.50
2023-02-07T09:42:28.011Z,99.40
2023-02-07T09:45:11.868Z,90.60
2023-02-07T09:47:45.572Z,84.40
2023-02-07T09:50:21.155Z,84.60
2023-02-07T09:53:05.827Z,80.80
2023-02-07T09:55:58.053Z,74.80
2023-02-07T09:58:44.435Z,81.00
2023-02-07T10:01:21.661Z,74.70
2023-02-07T10:04:23.223Z,57.30
2023-02-07T10:06:59.453Z,59.10
2023-02-07T10:09:36.770Z,62.00
2023-02-07T10:13:09.761Z,55.40
2023-02-07T10:16:19.659Z,45.90
2023-02-07T10:19:20.124Z,38.90
2023-02-07T10:22:03.544Z,76.30
2023-02-07T10:25:01.805Z,77.70
2023-02-07T10:28:06.763Z,67.80
2023-02-07T10:30:40.253Z,60.00
2023-02-07T10:33:21.869Z,60.40
2023-02-07T10:35:52.087Z,59.90
2023-02-07T10:38:33.121Z,59.40
2023-02-07T10:41:10.557Z,60.10
2023-02-07T10:43:40.155Z,74.30
2023-02-07T10:46:15.026Z,68.50
2023-02-07T10:48:42.782Z,60.20
2023-02-07T10:51:19.567Z,69.80
2023-02-07T10:54:02.081Z,59.00
2023-02-07T10:56:34.295Z,40.90
2023-02-07T10:59:02.197Z,49.30
2023-02-07T11:01:33.926Z,61.80
2023-02-07T11:04:02.050Z,54.40
2023-02-07T11:06:30.900Z,38.90
2023-02-07T11:09:12.311Z,35.60
2023-02-07T11:11:41.806Z,34.20
2023-02-07T11:14:18.492Z,36.20
2023-02-07T11:16:47.338Z,29.10
2023-02-07T11:19:22.104Z,30.40
2023-02-07T11:21:52.794Z,26.90
2023-02-07T11:24:34.433Z,19.60
2023-02-07T11:27:23.632Z,18.70
2023-02-07T11:30:09.199Z,18.80
2023-02-07T11:32:38.782Z,21.20
2023-02-07T11:35:10.061Z,19.60
2023-02-07T11:37:47.523Z,35.40
2023-02-07T11:40:45.533Z,32.60
2023-02-07T11:43:17.788Z,24.30
2023-02-07T11:45:50.146Z,24.60
2023-02-07T11:48:29.096Z,18.40
2023-02-07T11:51:01.346Z,20.50
2023-02-07T11:54:01.411Z,16.30
2023-02-07T11:56:42.876Z,15.70
2023-02-07T11:59:28.740Z,12.30
2023-02-07T12:02:04.480Z,10.60
2023-02-07T12:04:38.937Z,13.50
2023-02-07T12:07:15.026Z,15.70
2023-02-07T12:10:01.131Z,20.10
2023-02-07T12:13:06.725Z,22.60
2023-02-07T12:16:00.546Z,19.20
2023-02-07T12:19:19.289Z,18.50
2023-02-07T12:22:07.032Z,17.20
2023-02-07T12:24:56.858Z,18.60
2023-02-07T12:27:35.426Z,15.30
2023-02-07T12:30:06.790Z,18.90
2023-02-07T12:33:13.005Z,11.90
2023-02-07T12:36:13.756Z,15.40
2023-02-07T12:38:54.479Z,18.40
2023-02-07T12:41:42.653Z,13.30
2023-02-07T12:44:26.219Z,27.50
2023-02-07T12:47:01.608Z,23.50
2023-02-07T12:50:04.594Z,23.30
2023-02-07T12:53:15.703Z,22.30
2023-02-07T12:56:09.696Z,25.60
2023-02-07T12:59:00.361Z,22.20
2023-02-07T13:01:49.743Z,24.50
2023-02-07T13:04:38.789Z,16.20
2023-02-07T13:08:02.952Z,19.50
2023-02-07T13:11:13.307Z,14.20
2023-02-07T13:14:16.740Z,9.00
2023-02-07T13:17:20.982Z,23.70
2023-02-07T13:20:03.355Z,26.20
2023-02-07T13:23:00.483Z,24.00
2023-02-07T13:25:35.713Z,19.80
2023-02-07T13:28:14.619Z,22.90
2023-02-07T13:30:42.892Z,17.80
2023-02-07T13:33:39.924Z,21.70
2023-02-07T13:36:19.040Z,20.80
2023-02-07T13:39:22.268Z,18.40
2023-02-07T13:42:33.552Z,18.00
2023-02-07T13:45:17.779Z,22.80
2023-02-07T13:48:03.898Z,20.40
2023-02-07T13:50:56.385Z,28.00
2023-02-07T13:53:58.475Z,24.10
2023-02-07T13:56:55.117Z,27.90
2023-02-07T14:00:04.746Z,19.50
2023-02-07T14:02:46.508Z,16.50
2023-02-07T14:05:32.397Z,17.80
2023-02-07T14:08:18.181Z,15.30
2023-02-07T14:10:55.867Z,14.50
2023-02-07T14:13:26.364Z,13.80
2023-02-07T14:16:07.394Z,14.80
2023-02-07T14:18:53.055Z,17.80
2023-02-07T14:21:21.166Z,13.50
2023-02-07T14:24:09.148Z,14.30
2023-02-07T14:26:40.073Z,18.20
2023-02-07T14:29:20.385Z,17.50
2023-02-07T14:32:22.176Z,16.90
2023-02-07T14:35:25.431Z,20.80
2023-02-07T14:38:05.488Z,16.20
2023-02-07T14:41:09.485Z,17.40
2023-02-07T14:44:08.755Z,17.90
2023-02-07T14:46:52.196Z,14.90
2023-02-07T14:49:37.679Z,12.70
2023-02-07T14:52:13.711Z,9.60
2023-02-07T14:54:53.146Z,10.60
2023-02-07T14:57:35.538Z,13.10
2023-02-07T15:00:15.477Z,20.00
2023-02-07T15:02:54.756Z,20.60
2023-02-07T15:05:32.870Z,18.20
2023-02-07T15:08:03.760Z,24.10
2023-02-07T15:10:36.555Z,22.70
2023-02-07T15:13:19.547Z,30.30
2023-02-07T15:16:01.000Z,19.40
2023-02-07T15:18:34.258Z,28.80
2023-02-07T15:21:03.071Z,28.60
2023-02-07T15:23:32.096Z,27.00
2023-02-07T15:26:07.122Z,27.10
2023-02-07T15:28:35.183Z,23.20
2023-02-07T15:31:16.263Z,31.20
2023-02-07T15:33:47.046Z,31.30
2023-02-07T15:36:37.446Z,27.90
2023-02-07T15:39:28.137Z,15.50
2023-02-07T15:41:57.428Z,17.90
2023-02-07T15:44:29.269Z,21.40
2023-02-07T15:47:03.875Z,19.40
2023-02-07T15:49:42.391Z,18.60
2023-02-07T15:52:35.096Z,24.30
2023-02-07T15:55:18.405Z,36.30
2023-02-07T15:57:46.489Z,45.50
2023-02-07T16:00:38.006Z,28.50
2023-02-07T16:03:20.952Z,26.10
2023-02-07T16:05:49.653Z,19.30
2023-02-07T16:08:42.151Z,19.70
2023-02-07T16:11:31.203Z,25.20
2023-02-07T16:14:25.568Z,27.40
2023-02-07T16:16:56.925Z,23.60
2023-02-07T16:19:30.978Z,19.20
2023-02-07T16:22:07.398Z,23.70
2023-02-07T16:24:39.003Z,22.50
2023-02-07T16:27:07.628Z,25.60
2023-02-07T16:29:36.845Z,23.10
2023-02-07T16:32:05.099Z,22.40
2023-02-07T16:34:32.867Z,18.80
2023-02-07T16:37:00.558Z,21.40
2023-02-07T16:39:28.328Z,22.10
2023-02-07T16:42:05.099Z,21.80
2023-02-07T16:44:36.393Z,23.80
2023-02-07T16:47:04.126Z,22.60
2023-02-07T16:49:33.877Z,22.50
2023-02-07T16:52:01.603Z,15.30
2023-02-07T16:54:29.399Z,16.80
2023-02-07T16:57:03.554Z,14.70
2023-02-07T16:59:32.034Z,23.20
2023-02-07T17:01:59.825Z,27.10
2023-02-07T17:04:27.581Z,20.90
2023-02-07T17:06:55.482Z,21.30
2023-02-07T17:09:25.896Z,18.90
2023-02-07T17:11:54.649Z,18.90
2023-02-07T17:14:23.025Z,19.60
2023-02-07T17:16:51.802Z,19.80
2023-02-07T17:19:27.090Z,20.40
2023-02-07T17:21:56.640Z,21.50
2023-02-07T17:24:26.851Z,22.70
2023-02-07T17:26:56.475Z,23.80
2023-02-07T17:29:24.291Z,21.20
2023-02-07T17:31:52.079Z,22.00
2023-02-07T17:34:19.835Z,25.60
2023-02-07T17:36:50.076Z,27.60
2023-02-07T17:39:19.718Z,27.10
2023-02-07T17:41:48.510Z,28.10
2023-02-07T17:44:21.129Z,36.40
2023-02-07T17:46:49.517Z,37.80
2023-02-07T17:49:17.991Z,27.60
2023-02-07T17:51:45.909Z,22.70
2023-02-07T17:54:13.748Z,24.00
2023-02-07T17:56:41.507Z,21.60
2023-02-07T17:59:22.921Z,19.20
2023-02-07T18:01:51.840Z,22.30
2023-02-07T18:04:19.947Z,22.30
2023-02-07T18:06:48.046Z,23.50
2023-02-07T18:09:19.191Z,28.60
2023-02-07T18:11:47.535Z,29.00
2023-02-07T18:14:15.311Z,28.00
2023-02-07T18:16:43.164Z,27.40
2023-02-07T18:19:16.739Z,28.70
2023-02-07T18:21:44.943Z,32.70
2023-02-07T18:24:13.208Z,32.90
2023-02-07T18:26:41.568Z,33.00
2023-02-07T18:29:09.329Z,28.90
2023-02-07T18:31:37.155Z,28.40
2023-02-07T18:34:04.976Z,32.50
2023-02-07T18:36:40.285Z,33.90
2023-02-07T18:39:12.310Z,34.80
2023-02-07T18:41:42.258Z,38.90
2023-02-07T18:44:12.542Z,34.00
2023-02-07T18:46:40.529Z,33.70
2023-02-07T18:49:12.651Z,27.70
2023-02-07T18:51:40.685Z,26.90
2023-02-07T18:54:08.549Z,26.10
2023-02-07T18:56:37.175Z,25.30
2023-02-07T18:59:05.073Z,24.30
2023-02-07T19:01:35.002Z,25.80
2023-02-07T19:04:02.964Z,26.80
2023-02-07T19:06:34.530Z,36.10
2023-02-07T19:09:02.278Z,35.50
2023-02-07T19:11:30.094Z,34.60
2023-02-07T19:13:57.853Z,27.90
2023-02-07T19:16:27.159Z,32.90
2023-02-07T19:18:59.002Z,41.80
2023-02-07T19:21:29.302Z,88.10
2023-02-07T19:23:58.890Z,102.50
2023-02-07T19:26:26.886Z,78.10
2023-02-07T19:28:54.633Z,55.10
2023-02-07T19:31:24.694Z,36.30
2023-02-07T19:33:53.395Z,24.50
2023-02-07T19:36:23.539Z,23.90
2023-02-07T19:38:55.086Z,53.00
2023-02-07T19:41:29.116Z,83.30
2023-02-07T19:43:57.525Z,41.70
2023-02-07T19:46:26.261Z,20.30
2023-02-07T19:48:54.838Z,18.50
2023-02-07T19:51:31.896Z,24.20
2023-02-07T19:54:01.205Z,24.80
2023-02-07T19:56:33.280Z,24.20
2023-02-07T19:59:04.322Z,24.70
2023-02-07T20:01:34.847Z,25.40
2023-02-07T20:04:02.852Z,26.00
2023-02-07T20:06:33.505Z,26.40
2023-02-07T20:09:05.631Z,22.70
2023-02-07T20:11:34.952Z,24.00
2023-02-07T20:14:03.839Z,27.00
2023-02-07T20:16:36.544Z,29.10
2023-02-07T20:19:07.685Z,31.10
2023-02-07T20:21:37.519Z,29.80
2023-02-07T20:24:06.586Z,32.10
2023-02-07T20:26:39.693Z,30.60
2023-02-07T20:29:12.016Z,27.40
2023-02-07T20:31:40.933Z,26.20
2023-02-07T20:34:08.859Z,27.20
2023-02-07T20:36:41.749Z,30.10
2023-02-07T20:39:14.663Z,27.40
2023-02-07T20:41:43.306Z,28.00
2023-02-07T20:44:21.806Z,30.50
2023-02-07T20:46:50.945Z,27.00
2023-02-07T20:49:27.328Z,25.60
2023-02-07T20:51:59.473Z,27.40
2023-02-07T20:54:30.279Z,27.70
2023-02-07T20:56:58.529Z,25.20
2023-02-07T20:59:32.880Z,29.20
2023-02-07T21:02:01.848Z,29.70
2023-02-07T21:04:30.333Z,32.20
2023-02-07T21:06:58.106Z,29.60
2023-02-07T21:09:26.042Z,28.20
2023-02-07T21:11:55.047Z,28.20
2023-02-07T21:14:30.921Z,27.70
2023-02-07T21:17:09.032Z,29.20
2023-02-07T21:19:37.371Z,25.70
2023-02-07T21:22:05.632Z,27.80
2023-02-07T21:24:34.407Z,29.40
2023-02-07T21:27:03.315Z,32.80
2023-02-07T21:29:34.177Z,31.60
2023-02-07T21:32:02.926Z,30.00
2023-02-07T21:34:30.646Z,28.60
2023-02-07T21:36:58.376Z,27.80
2023-02-07T21:39:26.400Z,29.30
2023-02-07T21:41:54.030Z,27.30
2023-02-07T21:44:22.230Z,26.30
2023-02-07T21:46:52.731Z,28.10
2023-02-07T21:49:20.983Z,27.60
2023-02-07T21:51:50.338Z,24.10
2023-02-07T21:54:18.398Z,22.70
2023-02-07T21:56:48.932Z,25.70
2023-02-07T21:59:19.883Z,27.70
2023-02-07T22:01:48.167Z,27.30
2023-02-07T22:04:16.418Z,23.60
2023-02-07T22:06:47.187Z,23.10
2023-02-07T22:09:19.167Z,22.70
2023-02-07T22:11:46.841Z,23.60
2023-02-07T22:14:16.150Z,22.80
2023-02-07T22:16:44.302Z,23.10
2023-02-07T22:19:14.480Z,25.40
2023-02-07T22:21:42.152Z,25.50
2023-02-07T22:24:15.029Z,24.50
2023-02-07T22:26:42.968Z,24.20
2023-02-07T22:29:11.323Z,25.20
2023-02-07T22:31:43.958Z,29.40
2023-02-07T22:34:13.924Z,26.90
2023-02-07T22:36:44.226Z,25.50
2023-02-07T22:39:15.933Z,23.80
2023-02-07T22:41:44.151Z,25.00
2023-02-07T22:44:12.264Z,24.60
2023-02-07T22:46:40.139Z,25.40
2023-02-07T22:49:08.324Z,24.90
2023-02-07T22:51:39.146Z,24.30
2023-02-07T22:54:12.581Z,25.40
2023-02-07T22:56:40.416Z,25.50
2023-02-07T22:59:08.612Z,22.90
2023-02-07T23:01:40.616Z,25.60
2023-02-07T23:04:17.568Z,27.00
2023-02-07T23:06:46.994Z,26.10
2023-02-07T23:09:16.357Z,23.90
2023-02-07T23:11:44.400Z,25.10
2023-02-07T23:14:12.759Z,24.60
2023-02-07T23:16:41.043Z,27.40
2023-02-07T23:19:15.611Z,24.70
2023-02-07T23:21:44.120Z,25.00
2023-02-07T23:24:11.967Z,25.60
2023-02-07T23:26:40.276Z,24.50
2023-02-07T23:29:08.440Z,27.20
2023-02-07T23:31:36.526Z,26.00
2023-02-07T23:34:04.368Z,27.00
2023-02-07T23:36:32.155Z,26.40
2023-02-07T23:38:59.753Z,26.20
2023-02-07T23:41:27.853Z,26.20
2023-02-07T23:43:56.968Z,23.50
2023-02-07T23:46:24.792Z,23.10
2023-02-07T23:48:53.433Z,25.00
2023-02-07T23:51:21.692Z,25.60
2023-02-07T23:53:49.327Z,23.70
2023-02-07T23:56:21.762Z,22.70
2023-02-07T23:58:51.684Z,20.80
